Historyczne dane pomiarowe

Dodano dane terminowe – wersja testowa.

Dane z okresu 1951-2019

Wersja bazy: 1.34 [2019-03-16, lista zmian], aktualizacja planowana na 2019-04-15

Dane meteo z obszaru Polski uzyskane na podstawie danych udostępnionych przez Instytut Meteorologii i Gospodarki Wodnej – Państwowy Instytut Badawczy.

 

Wybierz Datę:    

       

TemperaturaWilgotnośćWiatrCiśnienieOpadyŚniegCzas trwania zjawisk
 Stacja t tx tn tng RH VA  wxwx mslp ppp RRR   cm mm wxwxwxwxwxwxwx
1999-08-14 15.4 23.0 8.4- 68.3- 3.3 2.3---- 0.2------------
1999-08-13 13.6 19.5 7.8- 83.8- 8.0 1.3---- 0.0------------
1999-08-12 16.3 20.9 11.6- 68.5- 6.7 2.3---- 0.0------------
1999-08-11 19.6 23.5 16.3- 75.3- 4.7 2.3---- 1.1------------
1999-08-10 20.9 24.8 15.7- 77.0- 5.3 2.0---- 0.0------------
1999-08-09 21.3 25.6 16.2- 76.5- 5.3 0.7---- 0.2------------
1999-08-08 23.5 30.1 17.8- 76.3- 4.3 1.3---- 0.0------------
1999-08-07 21.3 29.8 11.4- 76.3- 3.7 1.3---- 0.0------------
1999-08-06 22.4 28.1 17.1- 73.3- 3.7 2.3---- 0.0------------
1999-08-05 18.6 27.7 9.7- 73.8- 5.0 0.0---- 0.0------------
1999-08-04 19.2 27.9 8.5- 64.3- 2.3 0.3---- 0.0------------
1999-08-03 17.7 27.1 7.4- 63.3- 2.0 1.0---- 0.0------------
1999-08-02 18.6 26.7 8.9- 56.0- 2.3 1.3---- 0.0------------
1999-08-01 18.1 27.4 8.5- 59.0- 3.0 1.0---- 0.0------------
1999-07-31 19.3 27.1 8.6- 52.3- 2.0 3.3---- 0.0------------
1999-07-30 18.0 26.1 8.5- 60.3- 2.3 0.7---- 0.0------------
1999-07-29 18.8 25.6 10.7- 68.0- 3.3 2.7---- 0.0------------
1999-07-28 17.7 25.4 7.4- 60.5- 2.3 2.3---- 0.0------------
1999-07-27 18.0 23.2 12.9- 66.3- 2.7 3.0---- 0.0------------
1999-07-26 20.6 29.3 11.7- 69.8- 4.0 1.3---- 0.0------------
1999-07-25 19.7 25.4 13.2- 66.8- 5.0 2.3---- 0.0------------
1999-07-24 18.3 21.1 16.7- 66.3- 3.0 1.3---- 0.0------------
1999-07-23 17.0 22.0 12.0- 68.5- 6.7 2.3---- 0.0------------
1999-07-22 19.1 23.3 16.2- 61.3- 3.7 2.3---- 0.0------------
1999-07-21 24.5 28.6 23.0- 64.3- 3.0 1.3---- 2.0------------
1999-07-20 22.4 31.6 12.7- 63.8- 3.3 1.7---- 0.0------------
1999-07-19 21.6 30.3 11.5- 60.5- 1.3 0.3---- 0.0------------
1999-07-18 20.5 28.8 11.4- 62.8- 1.7 0.7---- 0.0------------
1999-07-17 19.1 25.7 10.7- 63.8- 1.0 0.3---- 0.0------------
1999-07-16 17.4 23.2 11.2- 70.3- 3.3 1.7---- 2.6------------
1999-07-15 17.4 21.8 13.9- 67.8- 6.0 3.0---- 0.0------------
1999-07-14 20.0 25.4 17.1- 92.8- 8.0 2.3---- 4.5------------
1999-07-13 21.7 27.6 15.4- 76.5- 3.7 1.0---- 13.0------------
1999-07-12 21.4 28.9 14.9- 70.8- 4.7 0.7---- 2.9------------
1999-07-11 19.6 26.1 12.8- 65.5- 7.0 2.3---- 0.0------------
1999-07-10 20.6 25.9 15.4- 68.0- 2.3 3.7---- 0.0------------
1999-07-09 19.3 23.6 15.2- 80.3- 7.3 4.3---- 0.0------------
1999-07-08 16.0 17.3 15.3- 97.0- 8.0 3.0---- 13.1------------
1999-07-07 18.4 22.0 17.2- 90.8- 8.0 1.7---- 1.2------------
1999-07-06 24.8 31.5 20.4- 72.5- 7.3 3.0---- 24.4------------
1999-07-05 24.5 32.4 14.5- 56.8- 4.3 3.0---- 0.0------------
1999-07-04 23.4 32.6 16.2- 63.8- 4.3 2.3---- 0.0------------
1999-07-03 20.7 27.4 13.3- 70.0- 3.3 1.0---- 0.0------------
1999-07-02 18.7 24.6 14.2- 86.0- 5.7 0.7---- 4.6------------
1999-07-01 19.8 24.9 14.9- 79.5- 7.3 1.0---- 0.6------------
1999-06-30 19.1 26.8 10.0- 66.5- 3.3 0.3---- 0.0------------
1999-06-29 18.6 24.2 11.5- 59.0- 1.7 1.7---- 0.0------------
1999-06-28 20.3 27.7 14.7- 80.3- 7.3 2.3---- 0.0------------
1999-06-27 20.6 26.6 12.3- 58.5- 5.0 3.7---- 1.8------------
1999-06-26 14.9 22.6 4.6- 71.8- 6.3 1.0---- 0.0------------
1999-06-25 13.7 19.1 8.9- 76.5- 6.0 1.0---- 0.0------------
1999-06-24 12.2 17.7 4.2- 73.5- 4.7 1.0---- 0.0------------
1999-06-23 12.9 17.1 9.5- 78.3- 7.3 3.7---- 0.0------------
1999-06-22 10.7 12.8 9.7- 95.8- 8.0 4.3---- 12.6------------
1999-06-21 16.2 20.3 12.8- 80.5- 7.3 3.0---- 6.3------------
1999-06-20 18.4 22.8 13.5- 79.3- 5.7 0.7---- 0.0------------
1999-06-19 16.8 19.8 14.8- 91.3- 8.0 2.3---- 0.0------------
1999-06-18 16.4 20.2 12.1- 95.3- 8.0 1.7---- 16.3------------
1999-06-17 19.3 22.6 16.3- 84.0- 7.7 1.7---- 0.0------------
1999-06-16 17.8 21.3 13.6- 79.3- 7.0 2.0---- 0.0------------
410.1 ms

 

Źródłem pochodzenia danych jest Instytut Meteorologii i Gospodarki Wodnej – Państwowy Instytut Badawczy. Dane Instytutu Meteorologii i Gospodarki Wodnej – Państwowego Instytutu Badawczego zostały przetworzone.

Dane źródłowe można odnaleźć na stronie https://dane.imgw.pl